M I D A S
Marine Information and Data Acquisition System
Tripno 216 of the Zeeleeuw from 2002-02-13 08:35:00 to 2002-02-13 15:01:13
Back to CruiseResearch ActivitiesStationsMapUnderway DataData graphs

EquipmentUnitsComment
TimeDGPSUTC
LatitudeDGPSDM.mWGS84
LongitudeDGPSDM.mWGS84
TemperatureSBE03/SBE38deg celciusITS90
ConductivitySBE21S/mITS90
SalinitySBE21 Practical Salinity Units
ChlorophylAChelsea fluorimeterg/lCalibrated in Aceton
Missing or incorrect values are displayed as -999
Sea surface data collected by the RV Zeeleeuw from 2002-02-13 08:35:00 to 2002-02-13 15:01:13
Time Latitude Longitude Temperature Conductivity Salinity ChlorophylA
2002-02-13 10:04:40 51°8.336 2°34.007 9.321317 3.559108 32.7173  
2002-02-13 10:05:40 51°8.361 2°34.011 9.302973 3.567625 32.824494  
2002-02-13 10:06:40 51°8.503 2°33.987 9.325914 3.564218 32.788165  
2002-02-13 10:07:40 51°8.703 2°33.886 9.288085 3.568627 32.824276  
2002-02-13 10:08:47 51°8.908 2°33.887 9.29809 3.584258 33.047341  
2002-02-13 10:09:48 51°8.986 2°33.927 9.196932 3.587565 33.109945  
2002-02-13 10:10:48 51°8.984 2°33.948 9.197787 3.586864 33.120145  
2002-02-13 10:11:47 51°8.978 2°33.972 9.216018 3.587766 33.135461  
2002-02-13 10:12:48 51°8.974 2°33.998 9.257968 3.590371 33.134952  
2002-02-13 10:13:48 51°8.97 2°34.018 9.271961 3.589469 33.124942  
2002-02-13 10:14:48 51°8.965 2°34.036 9.307334 3.589268 33.127424  
2002-02-13 10:15:48 51°8.961 2°34.054 9.221334 3.589769 33.130296  
2002-02-13 10:16:48 51°9.033 2°34.142 9.211318 3.590671 33.130471  
2002-02-13 10:17:48 51°9.146 2°34.013 9.167343 3.588668 33.137148  
2002-02-13 10:18:47 51°9.102 2°33.766 9.100277 3.587766 33.16806  
2002-02-13 10:19:48 51°9.003 2°33.511 9.089338 3.58426 33.185932  
2002-02-13 10:20:49 51°8.908 2°33.247 9.12676 3.583258 33.177899  
2002-02-13 10:21:49 51°8.815 2°32.989 9.095521 3.583158 33.181432  
2002-02-13 10:22:49 51°8.728 2°32.727 9.076733 3.582957 33.173284  
2002-02-13 10:23:48 51°8.662 2°32.457 9.0813 3.581455 33.174543  
2002-02-13 10:24:49 51°8.584 2°32.187 9.128851 3.581254 33.164112  
2002-02-13 10:25:49 51°8.496 2°31.932 9.11226 3.580553 33.14929  
2002-02-13 10:26:48 51°8.418 2°31.675 9.156605 3.580753 33.132366  
2002-02-13 10:27:48 51°8.344 2°31.412 9.137597 3.580152 33.118595  
2002-02-13 10:28:48 51°8.289 2°31.221 9.082727 3.580953 33.111673  
2002-02-13 10:29:48 51°8.266 2°31.212 9.055369 3.583359 33.19948  
2002-02-13 10:30:48 51°8.237 2°31.3 9.125857 3.582657 33.205205  
2002-02-13 10:31:49 51°8.307 2°31.329 9.144773 3.57925 33.10174  
2002-02-13 10:32:49 51°8.349 2°31.265 9.192611 3.581254 33.114763  
2002-02-13 10:33:48 51°8.35 2°31.272 9.051753 3.583659 33.2041  
2002-02-13 10:34:50 51°8.355 2°31.288 9.133034 3.582657 33.207491  
2002-02-13 10:35:48 51°8.356 2°31.313 9.062793 3.582757 33.204713  
2002-02-13 10:36:48 51°8.358 2°31.355 9.089338 3.58386 33.209974  
2002-02-13 10:37:48 51°8.361 2°31.407 9.1548 3.586364 33.210639  
2002-02-13 10:38:48 51°8.364 2°31.453 9.122006 3.584561 33.205011  
2002-02-13 10:39:48 51°8.366 2°31.49 9.115303 3.583057 33.155315  
2002-02-13 10:40:48 51°8.37 2°31.521 9.112593 3.583057 33.159114  
2002-02-13 10:41:48 51°8.374 2°31.548 9.12657 3.581454 33.141859  
2002-02-13 10:42:49 51°8.378 2°31.577 9.126142 3.580753 33.121744  
2002-02-13 10:43:49 51°8.379 2°31.599 9.12657 3.582256 33.129614  
2002-02-13 10:44:48 51°8.377 2°31.615 9.162877 3.580953 33.129115  
2002-02-13 10:45:48 51°8.374 2°31.632 9.407705 3.580252 33.116592  
2002-02-13 10:46:49 51°8.372 2°31.65 9.16948 3.581053 33.117251  
2002-02-13 10:47:48 51°8.372 2°31.668 9.172188 3.581254 33.123103  
2002-02-13 10:48:46 51°8.375 2°31.7 9.135458 3.581354 33.120342  
2002-02-13 10:49:49 51°8.436 2°31.866 9.126855 3.580953 33.116979  
2002-02-13 10:50:48 51°8.481 2°32.088 9.115873 3.581955 33.135627  
2002-02-13 10:51:49 51°8.531 2°32.329 9.107362 3.581354 33.138551  
2002-02-13 10:52:48 51°8.587 2°32.562 9.091716 3.581755 33.156347  
2002-02-13 10:53:49 51°8.645 2°32.804 9.075211 3.582056 33.167802  
2002-02-13 10:54:48 51°8.701 2°33.035 9.124716 3.582056 33.173126  
2002-02-13 10:55:48 51°8.757 2°33.269 9.179883 3.585662 33.168442  
2002-02-13 10:56:49 51°8.807 2°33.513 9.163447 3.586564 33.16329  
2002-02-13 10:57:48 51°8.856 2°33.751 9.169195 3.587766 33.160473  
2002-02-13 10:58:49 51°8.907 2°33.998 9.171475 3.588267 33.163346  
2002-02-13 10:59:48 51°8.958 2°34.238 9.173661 3.587866 33.156194  
2002-02-13 11:00:48 51°9 2°34.487 9.180025 3.587966 33.149642  
2002-02-13 11:01:48 51°9.036 2°34.741 9.156938 3.586864 33.140593  
2002-02-13 11:02:48 51°9.068 2°34.995 9.150191 3.587265 33.161393  
2002-02-13 11:03:48 51°9.1 2°35.248 9.154325 3.587065 33.165404  
2002-02-13 11:04:48 51°9.127 2°35.502 9.165347 3.587566 33.165242  
2002-02-13 11:05:47 51°9.154 2°35.754 9.207188 3.588267 33.145151  
2002-02-13 11:06:47 51°9.18 2°36.015 9.20149 3.589369 33.139048  
2002-02-13 11:07:49 51°9.204 2°36.285 9.19679 3.58977 33.148464  
2002-02-13 11:08:48 51°9.228 2°36.54 9.207425 3.588868 33.141477  
2002-02-13 11:09:47 51°9.252 2°36.793 9.222758 3.587766 33.115026  
2002-02-13 11:10:48 51°9.274 2°37.056 9.22684 3.586864 33.094435  
2002-02-13 11:11:48 51°9.291 2°37.317 9.23263 3.58516 33.073941  
2002-02-13 11:12:47 51°9.309 2°37.575 9.235668 3.583357 33.051671  
2002-02-13 11:13:48 51°9.32 2°37.845 9.282774 3.581854 33.032489  
2002-02-13 11:14:48 51°9.335 2°38.111 9.287327 3.580952 33.016462  
2002-02-13 11:15:48 51°9.333 2°38.378 9.256308 3.579449 32.997293  
2002-02-13 11:16:48 51°9.343 2°38.613 9.266222 3.578447 32.978749  
2002-02-13 11:17:48 51°9.361 2°38.675 9.267693 3.578447 32.970477  
2002-02-13 11:18:48 51°9.383 2°38.719 9.281304 3.578246 32.969928  
2002-02-13 11:19:48 51°9.402 2°38.775 9.265558 3.578447 32.968222  
2002-02-13 11:20:48 51°9.41 2°38.849 9.301124 3.578146 32.970405  
2002-02-13 11:21:47 51°9.402 2°38.928 9.264562 3.577445 32.964724  
2002-02-13 11:22:48 51°9.39 2°39.002 9.307381 3.577344 32.956183  
2002-02-13 11:23:47 51°9.365 2°39.061 9.27476 3.577244 32.955908  
2002-02-13 11:24:47 51°9.306 2°39.087 9.287421 3.577745 32.955028  
2002-02-13 11:25:48 51°9.237 2°39.054 9.304822 3.578847 32.953545  
2002-02-13 11:26:48 51°9.207 2°39.002 9.312359 3.580951 32.959314  
2002-02-13 11:27:48 51°9.203 2°38.967 9.318331 3.581853 32.962537  
2002-02-13 11:28:48 51°9.221 2°38.927 9.355715 3.582654 32.966234  
2002-02-13 11:29:48 51°9.247 2°38.903 9.311174 3.582053 32.963086  
2002-02-13 11:30:46 51°9.274 2°38.9 9.305153 3.582053 32.96834  
2002-02-13 11:31:48 51°9.306 2°38.917 9.298232 3.581452 32.968945  
2002-02-13 11:32:48 51°9.337 2°38.943 9.290978 3.581051 32.970851  
2002-02-13 11:33:48 51°9.365 2°38.982 9.284434 3.581452 32.980964  
2002-02-13 11:34:48 51°9.387 2°39.028 9.285999 3.58045 32.973712  
2002-02-13 11:35:48 51°9.403 2°39.077 9.288038 3.580651 32.975764  
2002-02-13 11:36:48 51°9.414 2°39.126 9.395019 3.58035 32.974189  
2002-02-13 11:37:48 51°9.423 2°39.172 9.28377 3.579849 32.972065  
2002-02-13 11:38:48 51°9.432 2°39.22 9.287896 3.58015 32.968381  
2002-02-13 11:39:48 51°9.447 2°39.271 9.317857 3.580751 32.976038  
2002-02-13 11:40:48 51°9.468 2°39.32 9.357941 3.579348 32.970693  
2002-02-13 11:41:48 51°9.49 2°39.369 9.31999 3.58035 32.975692  
2002-02-13 11:42:48 51°9.514 2°39.417 9.286426 3.580751 32.97679  
2002-02-13 11:43:48 51°9.539 2°39.465 9.287421 3.580851 32.9688  
2002-02-13 11:44:47 51°9.564 2°39.513 9.302025 3.580951 32.979593  
2002-02-13 11:45:48 51°9.59 2°39.568 9.287848 3.581853 32.977554  
2002-02-13 11:46:48 51°9.612 2°39.625 9.366514 3.582654 32.982002  
2002-02-13 11:47:48 51°9.63 2°39.682 9.273194 3.581352 32.977684  
2002-02-13 11:48:48 51°9.646 2°39.737 9.36462 3.579048 32.975131  
2002-02-13 11:49:48 51°9.659 2°39.795 9.27917 3.58035 32.969681  
2002-02-13 11:50:48 51°9.67 2°39.85 9.359931 3.579248 32.977184  
2002-02-13 11:51:48 51°9.681 2°39.905 9.284007 3.580551 32.975489  
2002-02-13 11:52:48 51°9.691 2°39.958 9.386734 3.58045 32.978973  
2002-02-13 11:53:47 51°9.7 2°40.009 9.286189 3.578847 32.965563  
2002-02-13 11:54:48 51°9.71 2°40.061 9.281209 3.579549 32.965982  
2002-02-13 11:55:48 51°9.719 2°40.112 9.309467 3.578847 32.961806  
2002-02-13 11:56:48 51°9.728 2°40.163 9.267787 3.579348 32.972196  
2002-02-13 11:57:48 51°9.74 2°40.215 9.280877 3.581052 32.987384  
2002-02-13 11:58:48 51°9.754 2°40.269 9.271914 3.579348 32.967687  
2002-02-13 11:59:48 51°9.77 2°40.323 9.304395 3.578346 32.96419  
2002-02-13 12:00:48 51°9.788 2°40.376 9.269637 3.578346 32.969451  
2002-02-13 12:01:48 51°9.803 2°40.435 9.344772 3.579148 32.973902  
2002-02-13 12:02:48 51°9.812 2°40.5 9.265937 3.575942 32.950081  
2002-02-13 12:03:48 51°9.821 2°40.572 9.282348 3.578547 32.961733  
2002-02-13 12:04:48 51°9.83 2°40.647 9.281589 3.578647 32.95675  
2002-02-13 12:05:48 51°9.839 2°40.725 9.324492 3.578547 32.957226  
2002-02-13 12:06:48 51°9.846 2°40.81 9.27476 3.579148 32.961879  
2002-02-13 12:07:48 51°9.835 2°40.905 9.312643 3.577445 32.952701  
2002-02-13 12:08:48 51°9.803 2°40.988 9.279502 3.576944 32.946069  
2002-02-13 12:09:48 51°9.756 2°41.044 9.290835 3.575841 32.931031  
2002-02-13 12:11:18 51°9.698 2°41.083 9.811642 0.058072 0.404337  
2002-02-13 12:12:18 51°9.678 2°41.109 9.926219 0.057973 0.403437  
2002-02-13 12:13:18 51°9.66 2°41.124 10.06665 0.061624 0.429575  
2002-02-13 12:14:17 51°9.638 2°41.109 10.282383 0.062512 0.435681  
2002-02-13 12:15:17 51°9.619 2°41.06 10.472127 0.060045 0.417523  
2002-02-13 12:16:18 51°9.621 2°41.006 10.664108 0.056295 0.390194  
2002-02-13 12:17:17 51°9.64 2°40.966 10.822792 0.054914 0.379942  
2002-02-13 12:19:02 51°9.689 2°40.924 11.268594 0.05304 0.366013  
2002-02-13 12:20:02 51°9.715 2°40.927 11.368115 0.051757 0.356541  
2002-02-13 12:21:02 51°9.752 2°40.927 11.303593 0.050573 0.347784  
2002-02-13 12:21:58 51°9.785 2°40.93 11.938206 0.049389 0.339075  
2002-02-13 12:22:58 51°9.817 2°40.929 11.789401 0.048304 0.331085  
2002-02-13 12:23:58 51°9.842 2°40.913 11.913839 0.047317 0.323815  
2002-02-13 12:24:57 51°9.859 2°40.883 11.906413 0.046331 0.31658  
2002-02-13 12:25:57 51°9.858 2°40.838 12.053728 0.045542 0.310742  
2002-02-13 12:26:57 51°9.853 2°40.783 12.222259 0.04495 0.306336  
2002-02-13 12:27:57 51°9.852 2°40.728 12.415505 0.044851 0.305385  
2002-02-13 12:28:58 51°9.837 2°40.683 12.460251 0.045048 0.306543  
2002-02-13 12:29:58 51°9.817 2°40.644 12.787554 0.044654 0.303513  
2002-02-13 12:30:57 51°9.8 2°40.602 12.743029 0.043766 0.297049  
2002-02-13 12:31:58 51°9.783 2°40.557 12.852939 0.043174 0.292662  
2002-02-13 12:32:58 51°9.769 2°40.512 12.836363 0.042977 0.291056  
2002-02-13 12:33:58 51°9.756 2°40.466 12.967421 0.042878 0.290137  
2002-02-13 12:34:57 51°9.745 2°40.419 12.988447 0.042681 0.288543  
2002-02-13 12:35:58 51°9.735 2°40.37 13.075575 0.042385 0.286258  
2002-02-13 12:36:58 51°9.724 2°40.322 13.277301 0.041891 0.282609  
2002-02-13 12:37:58 51°9.716 2°40.273 13.281318 0.0413 0.278287  
2002-02-13 12:38:58 51°9.71 2°40.221 13.327492 0.040609 0.27329  
2002-02-13 12:39:58 51°9.703 2°40.171 13.449045 0.040017 0.268995  
2002-02-13 12:40:57 51°9.694 2°40.123 13.519523 0.039425 0.264703  
2002-02-13 12:41:58 51°9.688 2°40.072 13.607961 0.038833 0.26042  
2002-02-13 12:42:58 51°9.683 2°40.021 13.784265 0.03834 0.256844  
2002-02-13 12:43:58 51°9.674 2°39.973 13.787189 0.037748 0.252585  
2002-02-13 12:44:58 51°9.659 2°39.928 13.882838 0.037255 0.249019  
2002-02-13 12:45:58 51°9.645 2°39.883 13.994515 0.036762 0.245455  
2002-02-13 12:46:58 51°9.636 2°39.837 13.981708 0.036269 0.241899  
2002-02-13 12:47:57 51°9.632 2°39.789 14.164171 0.035776 0.23835  
2002-02-13 12:48:58 51°9.633 2°39.737 14.168664 0.035381 0.235489  
2002-02-13 12:49:58 51°9.647 2°39.688 14.248026 0.034888 0.231959  
2002-02-13 12:50:58 51°9.67 2°39.662 9.525498 0.034493 0.228829  
2002-02-13 12:51:58 51°9.696 2°39.658 9.29496 3.596379 32.954447  
2002-02-13 12:52:57 51°9.727 2°39.677 9.280783 3.573737 32.866799  
2002-02-13 12:53:57 51°9.757 2°39.711 9.306813 3.58556 33.025283  
2002-02-13 12:54:58 51°9.781 2°39.745 9.254979 3.586563 33.053621  
2002-02-13 12:55:58 51°9.801 2°39.776 9.253129 3.58516 33.055831  
2002-02-13 12:56:57 51°9.817 2°39.802 9.24345 3.585761 33.067275  
2002-02-13 12:57:58 51°9.831 2°39.829 9.24364 3.583256 33.051398  
2002-02-13 12:58:58 51°9.88 2°39.846 9.281067 3.586964 33.090174  
2002-02-13 12:59:57 51°9.973 2°40.044 9.225986 3.587064 33.094224  
2002-02-13 13:00:58 51°10.079 2°40.379 9.221809 3.585862 33.100026  
2002-02-13 13:01:58 51°10.19 2°40.731 9.298374 3.585561 33.099966  
2002-02-13 13:02:57 51°10.3 2°41.077 9.218296 3.582856 33.078246  
2002-02-13 13:03:57 51°10.411 2°41.43 9.215163 3.583758 33.087503  
2002-02-13 13:04:58 51°10.526 2°41.788 9.210321 3.578848 33.043907  
2002-02-13 13:05:58 51°10.638 2°42.138 9.202962 3.580552 33.062147  
2002-02-13 13:06:57 51°10.75 2°42.482 9.194605 3.583057 33.102239  
2002-02-13 13:07:58 51°10.865 2°42.84 9.182875 3.58476 33.119736  
2002-02-13 13:08:57 51°10.977 2°43.186 9.17138 3.582857 33.12063  
2002-02-13 13:09:58 51°11.096 2°43.539 9.162022 3.585161 33.15418  
2002-02-13 13:10:57 51°11.206 2°43.888 9.155465 3.583959 33.149406  
2002-02-13 13:11:58 51°11.308 2°44.257 9.154515 3.58456 33.157866  
2002-02-13 13:12:57 51°11.409 2°44.613 9.155655 3.583358 33.146259  
2002-02-13 13:13:58 51°11.512 2°44.985 9.15537 3.580252 33.113559  
2002-02-13 13:14:58 51°11.61 2°45.35 9.194035 3.584861 33.163995  
2002-02-13 13:15:58 51°11.71 2°45.715 9.150761 3.584961 33.165026  
2002-02-13 13:16:57 51°11.808 2°46.074 9.153422 3.585362 33.169148  
2002-02-13 13:17:58 51°11.91 2°46.448 9.198689 3.582356 33.137472  
2002-02-13 13:18:57 51°12.008 2°46.81 9.248859 3.583558 33.14149  
2002-02-13 13:19:57 51°12.111 2°47.177 9.176938 3.57955 33.089678  
2002-02-13 13:20:58 51°12.216 2°47.546 9.264277 3.574941 33.039291  
2002-02-13 13:21:58 51°12.338 2°47.896 9.275186 3.577045 33.051834  
2002-02-13 13:22:57 51°12.459 2°48.238 9.20225 3.575742 33.029388  
2002-02-13 13:23:57 51°12.583 2°48.587 9.281731 3.577145 33.033973  
2002-02-13 13:24:57 51°12.705 2°48.939 9.209134 3.576945 33.033426  
2002-02-13 13:25:58 51°12.837 2°49.291 9.20695 3.576444 33.027528  
2002-02-13 13:26:58 51°12.967 2°49.636 9.201111 3.574139 33.004625  
2002-02-13 13:27:57 51°13.093 2°49.977 9.194368 3.578548 33.055176  
2002-02-13 13:28:57 51°13.227 2°50.319 9.18639 3.575342 33.028294  
2002-02-13 13:29:57 51°13.371 2°50.648 9.185202 3.578348 33.06219  
2002-02-13 13:30:57 51°13.525 2°50.929 9.264657 3.578548 33.062736  
2002-02-13 13:31:58 51°13.557 2°51.079 9.18297 3.578448 33.062463  
2002-02-13 13:32:59 51°13.58 2°51.105 9.182068 3.577346 33.048118  
2002-02-13 13:33:58 51°13.577 2°51.171 9.183778 3.576744 33.047235  
2002-02-13 13:34:58 51°13.574 2°51.232 9.192516 3.576544 33.051225  
2002-02-13 13:35:57 51°13.568 2°51.302 9.205194 3.577346 33.04434  
2002-02-13 13:36:58 51°13.553 2°51.389 9.192231 3.577646 33.039116  
2002-02-13 13:37:57 51°13.52 2°51.469 9.230827 3.575242 33.030287  
2002-02-13 13:38:58 51°13.474 2°51.513 9.201538 3.574139 33.015192  
2002-02-13 13:39:58 51°13.436 2°51.505 9.258443 3.572235 32.985837  
2002-02-13 13:40:57 51°13.407 2°51.481 9.269115 3.571033 32.958426  
2002-02-13 13:41:57 51°13.377 2°51.48 9.242738 3.570532 32.943501  
2002-02-13 13:42:58 51°13.345 2°51.491 9.299465 3.568428 32.908392  
2002-02-13 13:43:57 51°13.326 2°51.469 9.292874 3.568327 32.888593  
2002-02-13 13:44:58 51°13.325 2°51.412 9.294012 3.567124 32.847797  
2002-02-13 13:45:57 51°13.326 2°51.359 9.3116 3.568327 32.872093  
2002-02-13 13:46:58 51°13.322 2°51.315 9.29515 3.566323 32.868064  
2002-02-13 13:47:58 51°13.317 2°51.267 9.252323 3.56963 32.912452  
2002-02-13 13:48:58 51°13.312 2°51.213 9.245158 3.568929 32.912025  
2002-02-13 13:49:57 51°13.302 2°51.161 9.277605 3.570231 32.927632  
2002-02-13 13:50:58 51°13.299 2°51.103 9.239084 3.570131 32.929612  
2002-02-13 13:51:58 51°13.28 2°51.063 9.275803 3.569129 32.923099  
2002-02-13 13:52:58 51°13.257 2°51.02 9.315629 3.570532 32.940491  
2002-02-13 13:53:57 51°13.236 2°50.975 9.282869 3.567726 32.908716  
2002-02-13 13:54:57 51°13.204 2°50.947 9.256308 3.56983 32.92653  
2002-02-13 13:55:58 51°13.176 2°50.909 9.308329 3.568528 32.901907  
2002-02-13 13:56:58 51°13.149 2°50.868 9.35581 3.567125 32.875525  
2002-02-13 13:57:58 51°13.121 2°50.827 9.292542 3.565622 32.848888  
2002-02-13 13:58:58 51°13.093 2°50.786 9.340698 3.565722 32.840177  
2002-02-13 13:59:57 51°13.066 2°50.747 9.31307 3.56502 32.823269  
2002-02-13 14:00:58 51°13.041 2°50.708 9.324539 3.564018 32.804791  
2002-02-13 14:01:58 51°13.021 2°50.668 9.335817 3.564118 32.796849  
2002-02-13 14:02:58 51°13.001 2°50.628 9.417123 3.564419 32.786481  
2002-02-13 14:03:58 51°12.975 2°50.598 9.417028 3.564118 32.786394  
2002-02-13 14:04:58 51°12.942 2°50.583 9.377075 3.564018 32.78313  
2002-02-13 14:05:58 51°12.911 2°50.565 9.33866 3.563417 32.779969  
2002-02-13 14:06:58 51°12.893 2°50.546 9.378164 3.563116 32.774657  
2002-02-13 14:07:58 51°12.883 2°50.526 9.338518 3.562215 32.767677  
2002-02-13 14:08:58 51°12.878 2°50.505 9.340792 3.564619 32.789276  
2002-02-13 14:09:58 51°12.876 2°50.481 9.338565 3.563617 32.782765  
2002-02-13 14:10:58 51°12.877 2°50.419 9.373997 3.564218 32.787418  
2002-02-13 14:11:58 51°12.885 2°50.324 9.445274 3.563717 32.785282  
2002-02-13 14:12:58 51°12.904 2°50.259 9.361494 3.564018 32.795077  
2002-02-13 14:13:59 51°12.928 2°50.219 9.314823 3.564219 32.803852  
2002-02-13 14:14:57 51°12.952 2°50.204 9.309657 3.564519 32.811412  
2002-02-13 14:15:57 51°12.978 2°50.204 9.310747 3.564519 32.815151  
2002-02-13 14:16:58 51°13.026 2°50.224 9.313923 3.565321 32.820361  
2002-02-13 14:17:58 51°13.169 2°50.436 9.318994 3.567525 32.850402  
2002-02-13 14:18:58 51°13.354 2°50.684 9.234102 3.573938 32.952099  
2002-02-13 14:19:58 51°13.521 2°50.95 9.252465 3.576844 33.014284  
2002-02-13 14:20:58 51°13.625 2°51.053 9.200541 3.577245 33.033491  
2002-02-13 14:21:57 51°13.669 2°51.207 9.193371 3.577847 33.050996  
2002-02-13 14:22:58 51°13.595 2°51.324 9.238657 3.578448 33.057926  
2002-02-13 14:23:58 51°13.538 2°51.25 9.212742 3.576844 33.030887  
2002-02-13 14:24:58 51°13.549 2°51.051 9.25275 3.575041 33.004828  
2002-02-13 14:25:58 51°13.583 2°50.94 9.20771 3.577446 33.036304  
2002-02-13 14:26:57 51°13.543 2°50.884 9.274949 3.575742 33.027123  
2002-02-13 14:27:58 51°13.511 2°51.016 9.205479 3.576644 33.040915  
2002-02-13 14:28:58 51°13.517 2°51.095 9.209752 3.573237 32.990843  
2002-02-13 14:29:58 51°13.527 2°51.117 9.21203 3.57454 33.006475  
2002-02-13 14:30:58 51°13.534 2°51.142 9.21336 3.57454 33.004966  
2002-02-13 14:31:58 51°13.54 2°51.168 9.223898 3.575642 33.01477  
2002-02-13 14:32:58 51°13.544 2°51.196 9.270491 3.576644 32.994136  
2002-02-13 14:33:58 51°13.546 2°51.225 9.300508 3.578547 33.00085  
2002-02-13 14:34:58 51°13.55 2°51.256 9.249049 3.577345 32.996808  
2002-02-13 14:35:58 51°13.554 2°51.287 9.236047 3.577445 33.008386  
2002-02-13 14:36:58 51°13.557 2°51.319 9.287848 3.575541 32.982081  
2002-02-13 14:37:58 51°13.592 2°51.489 9.277795 3.57484 32.986186  
2002-02-13 14:38:58 51°13.698 2°51.816 9.275518 3.572836 32.964879  
2002-02-13 14:39:58 51°13.789 2°52.177 9.245633 3.572736 32.964604  
2002-02-13 14:40:58 51°13.877 2°52.539 9.26385 3.570031 32.927833  
2002-02-13 14:41:58 51°13.959 2°52.903 9.320132 3.567926 32.883737  
2002-02-13 14:42:58 51°14.039 2°53.265 9.38877 3.563517 32.77577  
2002-02-13 14:43:57 51°14.113 2°53.622 9.43709 3.557004 32.663103  
2002-02-13 14:44:58 51°14.184 2°53.988 9.526065 3.547785 32.525441  
2002-02-13 14:45:58 51°14.255 2°54.348 9.470813 3.544379 32.481895  
2002-02-13 14:46:58 51°14.321 2°54.709 9.482207 3.539569 32.41381  
2002-02-13 14:47:58 51°14.348 2°55.03 9.507117 3.536163 32.367413  
2002-02-13 14:48:58 51°14.273 2°55.234 9.424363 3.381986 30.827952  
2002-02-13 14:50:02 51°14.178 2°55.368 10.49843 3.283428 29.912626  
2002-02-13 14:51:03 51°14.09 2°55.434 10.471847 3.155745 28.617711  
2002-02-13 14:52:03 51°14.014 2°55.49 13.429945 1.716069 12.624475  
2002-02-13 14:53:03 51°13.94 2°55.546 13.431281 0.299465 1.823985  
2002-02-13 14:54:03 51°13.86 2°55.606 14.676276 0.18733 1.112643  
2002-02-13 14:55:03 51°13.786 2°55.668 14.44122 0.157688 0.934206  
2002-02-13 14:56:03 51°13.744 2°55.727 14.185794 0.145736 0.86142  
2002-02-13 14:57:03 51°13.718 2°55.782 14.265972 0.139908 0.827624  
2002-02-13 14:58:03 51°13.701 2°55.843 14.443808 0.136649 0.807398  
2002-02-13 14:59:03 51°13.689 2°55.901 14.154701 0.134377 0.794054  
2002-02-13 15:00:03 51°13.688 2°55.904 14.972043 0.132995 0.787744  
2002-02-13 15:01:03 51°13.688 2°55.905 15.513593 0.131513 0.778485